Time;durP1;ratioP1;P1;durP2;ratioP2;P2;SDS_P1;SDS_P2;PMS_P1;PMS_P2;Temp;Humidity;BMP_temperature;BMP_pressure;BME280_temperature;BME280_humidity;BME280_pressure;Samples;Min_cycle;Max_cycle;Signal;HPM_P1;HPM_P2
2022/12/19 00:01:31;;;;;;;24.57;10.75;;;;;;;-2.67;63.04;103754.02;1669050;85;26517;-63
2022/12/19 00:04:06;;;;;;;22.48;10.38;;;;;;;-2.67;62.89;103754.02;1630795;86;27668;-62
2022/12/19 00:06:33;;;;;;;21.40;9.85;;;;;;;-2.63;62.46;103758.91;1647586;87;25774;-63
2022/12/19 00:09:00;;;;;;;22.95;10.15;;;;;;;-2.62;62.62;103756.72;1647506;86;25832;-63
2022/12/19 00:11:28;;;;;;;19.73;10.13;;;;;;;-2.63;62.22;103749.67;1645921;85;25795;-63
2022/12/19 00:13:56;;;;;;;18.62;10.15;;;;;;;-2.68;62.32;103751.80;1646266;85;25853;-63
2022/12/19 00:16:26;;;;;;;27.25;11.35;;;;;;;-2.64;62.67;103758.00;1645752;86;27513;-62
2022/12/19 00:18:57;;;;;;;24.72;11.83;;;;;;;-2.57;62.88;103758.56;1645569;86;25878;-63
2022/12/19 00:21:27;;;;;;;23.87;11.05;;;;;;;-2.47;62.99;103756.94;1646983;84;25514;-62
2022/12/19 00:23:55;;;;;;;26.40;11.35;;;;;;;-2.38;63.06;103757.07;1676958;84;25843;-63
2022/12/19 00:26:26;;;;;;;23.80;10.68;;;;;;;-2.30;62.53;103764.19;1676203;84;25732;-62
2022/12/19 00:29:02;;;;;;;18.02;9.70;;;;;;;-2.29;62.12;103762.02;1674359;85;28276;-63
2022/12/19 00:31:33;;;;;;;22.65;10.58;;;;;;;-2.39;61.42;103753.10;1661520;85;25766;-63
2022/12/19 00:34:01;;;;;;;19.37;8.93;;;;;;;-2.40;61.80;103754.84;1649839;86;25785;-63
2022/12/19 00:36:31;;;;;;;24.60;11.05;;;;;;;-2.37;61.40;103752.25;1651081;86;26545;-63
2022/12/19 00:39:01;;;;;;;21.65;10.15;;;;;;;-2.36;61.37;103756.66;1674346;84;25781;-64
2022/12/19 00:41:35;;;;;;;20.72;9.73;;;;;;;-2.31;60.84;103753.19;1674258;85;27459;-64
2022/12/19 00:44:06;;;;;;;19.67;9.10;;;;;;;-2.34;60.51;103759.31;1674715;85;25520;-63
2022/12/19 00:46:35;;;;;;;21.75;8.90;;;;;;;-2.34;61.04;103760.62;1649525;85;25670;-63
2022/12/19 00:49:04;;;;;;;20.62;9.90;;;;;;;-2.33;60.45;103755.81;1646424;85;26328;-63
2022/12/19 00:51:35;;;;;;;17.20;8.80;;;;;;;-2.36;60.52;103774.22;1645433;86;25824;-63
2022/12/19 00:54:06;;;;;;;20.32;9.58;;;;;;;-2.40;60.56;103773.29;1650781;85;28221;-64
2022/12/19 00:56:34;;;;;;;22.50;8.63;;;;;;;-2.38;60.40;103767.61;1657148;86;25840;-63
2022/12/19 00:59:01;;;;;;;16.70;7.75;;;;;;;-2.48;59.30;103768.79;1657328;86;25883;-63
2022/12/19 01:01:33;;;;;;;16.20;7.25;;;;;;;-2.56;59.71;103764.71;1695077;84;25749;-62
2022/12/19 01:04:04;;;;;;;19.45;8.30;;;;;;;-2.57;59.89;103767.80;1695999;84;25760;-63
2022/12/19 01:06:31;;;;;;;20.17;10.20;;;;;;;-2.53;60.21;103772.67;1686450;84;27496;-63
2022/12/19 01:08:58;;;;;;;18.15;8.75;;;;;;;-2.49;60.28;103767.02;1690245;84;25777;-63
2022/12/19 01:14:12;;;;;;;23.02;9.55;;;;;;;-2.62;59.73;103776.05;1688616;84;26084;-63
2022/12/19 01:16:40;;;;;;;20.10;8.65;;;;;;;-2.62;59.39;103765.50;1660876;84;25909;-62
2022/12/19 01:19:07;;;;;;;15.83;8.68;;;;;;;-2.63;59.61;103769.45;1661061;86;28735;-62
2022/12/19 01:21:36;;;;;;;19.95;8.80;;;;;;;-2.64;59.93;103765.91;1659167;86;26351;-63
2022/12/19 01:24:04;;;;;;;19.65;9.33;;;;;;;-2.68;59.70;103775.52;1653867;86;25822;-62
2022/12/19 01:26:32;;;;;;;18.45;8.25;;;;;;;-2.67;59.93;103762.80;1657684;86;25766;-62
2022/12/19 01:28:58;;;;;;;20.15;8.68;;;;;;;-2.67;59.63;103752.25;1690399;84;25768;-62
2022/12/19 01:31:27;;;;;;;17.48;9.03;;;;;;;-2.74;58.75;103751.72;1691758;83;27647;-63
2022/12/19 01:33:55;;;;;;;20.97;9.50;;;;;;;-2.75;59.32;103757.84;1689956;83;25912;-62
2022/12/19 01:36:26;;;;;;;19.62;9.28;;;;;;;-2.81;59.50;103756.44;1630520;84;25531;-63
2022/12/19 01:38:55;;;;;;;23.73;9.53;;;;;;;-2.88;59.73;103747.55;1655392;85;26516;-63
2022/12/19 01:41:24;;;;;;;24.63;10.13;;;;;;;-2.93;59.35;103750.97;1686534;85;25840;-62
2022/12/19 01:43:59;;;;;;;17.05;8.60;;;;;;;-2.96;59.57;103769.37;1660043;85;27477;-62
2022/12/19 01:46:35;;;;;;;20.08;8.23;;;;;;;-2.97;59.80;103765.84;1657466;86;25789;-62
2022/12/19 01:49:03;;;;;;;14.47;7.42;;;;;;;-3.01;59.52;103764.91;1657247;84;25847;-63
2022/12/19 01:51:41;;;;;;;21.60;9.00;;;;;;;-3.00;59.91;103755.23;1658535;86;25794;-63
2022/12/19 01:54:16;;;;;;;22.17;9.23;;;;;;;-3.02;59.75;103750.41;1661999;85;25753;-62
2022/12/19 01:56:49;;;;;;;17.75;8.93;;;;;;;-3.03;60.02;103754.77;1642447;87;27527;-62
2022/12/19 01:59:25;;;;;;;21.27;9.75;;;;;;;-3.01;60.06;103760.08;1641366;85;25902;-62
2022/12/19 02:01:57;;;;;;;18.87;8.53;;;;;;;-3.00;60.14;103753.92;1617990;88;25875;-62
2022/12/19 02:04:27;;;;;;;22.02;8.85;;;;;;;-3.00;60.10;103755.23;1665317;85;25901;-63
2022/12/19 02:06:57;;;;;;;22.52;9.70;;;;;;;-3.00;60.18;103759.19;1675177;85;25802;-63
2022/12/19 02:09:24;;;;;;;20.52;8.63;;;;;;;-3.03;60.04;103757.40;1677708;84;27625;-63
2022/12/19 02:11:53;;;;;;;19.00;8.50;;;;;;;-3.03;60.17;103755.21;1666337;84;25805;-62
2022/12/19 02:14:21;;;;;;;20.00;9.78;;;;;;;-3.07;60.07;103758.23;1676371;83;25833;-62
2022/12/19 02:17:12;;;;;;;19.02;9.40;;;;;;;-3.10;60.28;103771.78;1711567;83;25804;-62
2022/12/19 02:20:00;;;;;;;21.80;9.60;;;;;;;-3.13;60.49;103757.23;1698290;83;26454;-63
2022/12/19 02:22:50;;;;;;;20.75;9.45;;;;;;;-3.23;60.41;103757.07;1687753;83;27491;-62
2022/12/19 02:25:45;;;;;;;19.77;10.43;;;;;;;-3.31;60.63;103760.00;1644586;83;25895;-62
2022/12/19 02:28:45;;;;;;;19.35;8.38;;;;;;;-3.37;60.86;103752.88;1665809;85;25861;-63
2022/12/19 02:31:18;;;;;;;25.25;10.55;;;;;;;-3.39;60.94;103754.59;1676668;85;25849;-62
2022/12/19 02:34:09;;;;;;;19.20;9.28;;;;;;;-3.41;61.13;103749.75;1678794;83;26085;-63
2022/12/19 02:36:49;;;;;;;25.50;9.88;;;;;;;-3.40;61.27;103754.57;1681572;84;27559;-63
2022/12/19 02:39:29;;;;;;;21.45;10.35;;;;;;;-3.41;61.21;103760.28;1668229;84;25743;-63
2022/12/19 02:41:57;;;;;;;24.07;10.15;;;;;;;-3.42;61.18;103761.13;1665094;86;25672;-63
2022/12/19 02:44:44;;;;;;;22.50;9.98;;;;;;;-3.41;61.32;103775.16;1665861;85;26605;-63
2022/12/19 02:47:13;;;;;;;23.30;9.30;;;;;;;-3.41;61.33;103776.48;1676610;83;25856;-61
2022/12/19 02:49:41;;;;;;;20.62;9.78;;;;;;;-3.42;61.39;103774.70;1668728;84;27486;-62
2022/12/19 02:52:20;;;;;;;21.33;10.20;;;;;;;-3.40;61.53;103780.45;1681649;84;25722;-64
2022/12/19 02:54:55;;;;;;;22.90;10.50;;;;;;;-3.37;61.63;103780.96;1682998;84;25756;-62
2022/12/19 02:57:32;;;;;;;;;;;;;;;-3.38;61.64;103779.19;1682818;85;26791;-62
2022/12/19 03:00:11;;;;;;;21.77;10.40;;;;;;;-3.43;61.74;103775.56;1673197;85;25693;-61
2022/12/19 03:03:01;;;;;;;28.55;11.53;;;;;;;-3.44;61.90;103773.78;1671273;85;27564;-61
2022/12/19 03:06:02;;;;;;;25.25;10.50;;;;;;;-3.44;62.07;103780.36;1691797;84;25778;-62
2022/12/19 03:09:07;;;;;;;26.82;12.60;;;;;;;-3.47;62.00;103782.11;1702314;83;25698;-62
2022/12/19 03:11:38;;;;;;;28.62;11.25;;;;;;;-3.51;62.08;103776.31;1664916;84;26044;-62
2022/12/19 03:14:18;;;;;;;30.00;12.47;;;;;;;-3.51;62.29;103776.31;1672042;85;25798;-62
2022/12/19 03:16:45;;;;;;;27.40;12.23;;;;;;;-3.57;62.34;103775.30;1671860;85;27507;-62
2022/12/19 03:19:14;;;;;;;22.22;12.07;;;;;;;-3.58;62.46;103773.52;1671886;85;25761;-62
2022/12/19 03:21:47;;;;;;;23.47;11.80;;;;;;;-3.61;62.64;103774.36;1672062;85;25769;-63
2022/12/19 03:24:18;;;;;;;26.10;11.60;;;;;;;-3.70;62.68;103776.81;1671524;84;26408;-62
2022/12/19 03:27:02;;;;;;;27.35;12.25;;;;;;;-3.79;62.94;103782.34;1672143;85;25737;-62
2022/12/19 03:29:35;;;;;;;28.25;12.95;;;;;;;-3.80;63.06;103792.41;1676089;85;27532;-62
2022/12/19 03:32:06;;;;;;;25.95;11.88;;;;;;;-3.84;63.12;103792.31;1679982;85;25707;-63
2022/12/19 03:34:41;;;;;;;23.38;11.73;;;;;;;-3.78;63.42;103792.46;1679988;84;25795;-63
2022/12/19 03:37:13;;;;;;;23.98;12.65;;;;;;;-3.71;63.43;103793.45;1658681;85;25832;-63
2022/12/19 03:39:43;;;;;;;22.90;11.55;;;;;;;-3.66;63.54;103793.13;1679125;85;25919;-63
2022/12/19 03:45:02;;;;;;;45.92;27.35;;;;;;;-3.68;63.03;103802.32;1680402;84;25781;-62
2022/12/19 03:47:43;;;;;;;26.60;13.05;;;;;;;-3.72;63.24;103800.91;1680558;83;25676;-62
2022/12/19 03:50:11;;;;;;;26.40;10.95;;;;;;;-3.76;63.28;103805.19;1676776;84;25860;-62
2022/12/19 03:52:52;;;;;;;25.27;11.73;;;;;;;-3.78;63.36;103807.80;1680436;83;26172;-62
2022/12/19 03:55:31;;;;;;;26.52;11.90;;;;;;;-3.89;63.33;103811.95;1647241;85;28491;-62
2022/12/19 03:58:04;;;;;;;24.43;11.00;;;;;;;-4.13;63.40;103822.41;1660945;86;26456;-62
2022/12/19 04:00:35;;;;;;;26.07;12.00;;;;;;;-4.31;63.54;103825.94;1666818;84;25801;-62
2022/12/19 04:03:06;;;;;;;26.93;12.98;;;;;;;-4.41;64.30;103815.65;1665646;86;26170;-62
2022/12/19 04:05:36;;;;;;;23.05;11.95;;;;;;;-4.49;64.56;103818.53;1661463;84;25949;-62
2022/12/19 04:08:06;;;;;;;25.30;12.25;;;;;;;-4.57;64.67;103832.78;1660109;86;27500;-62
2022/12/19 04:10:38;;;;;;;24.20;12.45;;;;;;;-4.60;65.29;103845.84;1659695;84;25824;-62
2022/12/19 04:13:13;;;;;;;29.37;13.65;;;;;;;-4.65;65.40;103843.53;1632618;85;25801;-62
2022/12/19 04:16:12;;;;;;;30.05;12.05;;;;;;;-4.65;65.49;103836.97;1630065;86;26540;-62
2022/12/19 04:18:44;;;;;;;24.65;11.68;;;;;;;-4.67;65.65;103834.72;1637576;86;25900;-62
2022/12/19 04:21:16;;;;;;;27.93;13.48;;;;;;;-4.78;65.83;103829.21;1640577;85;28416;-62
2022/12/19 04:23:54;;;;;;;30.35;14.53;;;;;;;-4.84;65.88;103840.45;1644643;86;25842;-62
2022/12/19 04:26:22;;;;;;;31.17;12.58;;;;;;;-4.77;66.18;103845.00;1655231;85;25797;-62
2022/12/19 04:28:53;;;;;;;28.25;13.43;;;;;;;-4.73;66.08;103840.30;1651338;85;25825;-62
2022/12/19 04:31:22;;;;;;;30.15;12.70;;;;;;;-4.71;66.04;103839.89;1651834;86;25803;-62
2022/12/19 04:33:49;;;;;;;28.98;13.50;;;;;;;-4.73;66.05;103838.08;1648554;86;27432;-62
2022/12/19 04:36:16;;;;;;;26.40;12.85;;;;;;;-4.79;65.89;103841.88;1655203;85;25822;-63
2022/12/19 04:38:43;;;;;;;32.17;13.30;;;;;;;-4.73;66.12;103841.61;1632011;86;25986;-62
2022/12/19 04:41:10;;;;;;;25.55;12.50;;;;;;;-4.77;66.09;103845.44;1598342;89;25955;-62
2022/12/19 04:43:36;;;;;;;32.42;13.38;;;;;;;-4.83;66.13;103850.52;1585575;89;25787;-62
2022/12/19 04:46:03;;;;;;;25.85;12.73;;;;;;;-4.85;66.14;103859.67;1633867;86;27527;-62
2022/12/19 04:48:30;;;;;;;28.92;12.68;;;;;;;-4.78;66.38;103862.05;1649886;86;25779;-62
2022/12/19 04:50:57;;;;;;;30.82;13.55;;;;;;;-4.71;66.33;103853.46;1635130;86;25765;-62
2022/12/19 04:53:24;;;;;;;24.77;12.88;;;;;;;-4.61;66.46;103847.59;1629978;87;25837;-62
2022/12/19 04:55:53;;;;;;;34.55;13.93;;;;;;;-4.49;66.54;103861.89;1637411;86;25909;-62
2022/12/19 04:58:21;;;;;;;30.00;13.32;;;;;;;-4.42;66.24;103869.94;1644872;86;28337;-62
2022/12/19 05:00:48;;;;;;;32.50;13.08;;;;;;;-4.35;66.07;103871.42;1655970;84;25824;-62
2022/12/19 05:03:15;;;;;;;39.60;14.25;;;;;;;-4.32;66.09;103864.48;1665532;84;26424;-62
2022/12/19 05:05:42;;;;;;;33.90;13.60;;;;;;;-4.26;66.01;103871.64;1660112;85;25855;-64
2022/12/19 05:08:09;;;;;;;34.08;12.75;;;;;;;-4.26;65.83;103876.89;1638411;86;25912;-64
2022/12/19 05:10:36;;;;;;;29.50;13.48;;;;;;;-4.23;65.76;103878.26;1627566;86;27624;-64
2022/12/19 05:13:03;;;;;;;28.15;13.10;;;;;;;-4.26;65.42;103876.45;1656679;84;26348;-65
2022/12/19 05:15:30;;;;;;;36.33;13.03;;;;;;;-4.30;65.36;103871.09;1665519;84;25809;-64
2022/12/19 05:17:57;;;;;;;43.83;12.37;;;;;;;-4.35;65.32;103876.23;1663814;86;25833;-64
2022/12/19 05:20:24;;;;;;;29.95;13.75;;;;;;;-4.39;65.28;103882.25;1665299;84;25798;-64
2022/12/19 05:22:50;;;;;;;32.65;14.23;;;;;;;-4.45;65.44;103894.84;1663556;84;28269;-64
2022/12/19 05:25:17;;;;;;;32.88;13.30;;;;;;;-4.45;65.55;103900.11;1657017;86;25769;-64
2022/12/19 05:27:44;;;;;;;30.52;13.80;;;;;;;-4.52;65.48;103902.09;1652918;85;25481;-63
2022/12/19 05:30:12;;;;;;;37.93;14.63;;;;;;;-4.61;65.34;103893.97;1644609;85;25952;-64
2022/12/19 05:32:39;;;;;;;29.50;13.93;;;;;;;-4.78;65.46;103895.75;1651385;85;25901;-64
2022/12/19 05:35:07;;;;;;;30.68;13.60;;;;;;;-4.98;65.52;103897.86;1650320;86;27441;-64
2022/12/19 05:37:34;;;;;;;35.75;14.53;;;;;;;-5.03;65.90;103913.48;1645898;85;25771;-64
2022/12/19 05:40:01;;;;;;;49.65;20.80;;;;;;;-5.01;66.21;103913.95;1646256;84;25797;-63
2022/12/19 05:42:27;;;;;;;42.30;18.92;;;;;;;-5.06;66.33;103905.95;1645943;85;25802;-64
2022/12/19 05:44:54;;;;;;;31.73;15.40;;;;;;;-5.11;66.40;103908.45;1641570;86;25760;-64
2022/12/19 05:47:21;;;;;;;27.30;14.75;;;;;;;-5.09;66.47;103922.52;1629962;86;27610;-64
2022/12/19 05:49:48;;;;;;;34.00;13.98;;;;;;;-5.06;66.65;103927.83;1628300;86;25858;-62
2022/12/19 05:52:14;;;;;;;42.25;16.17;;;;;;;-5.03;66.54;103916.11;1659085;86;25795;-63
2022/12/19 05:54:41;;;;;;;36.23;13.93;;;;;;;-5.01;66.65;103923.14;1658714;86;25944;-62
2022/12/19 05:57:07;;;;;;;50.58;21.02;;;;;;;-4.92;67.00;103915.52;1652763;85;25764;-63
2022/12/19 05:59:35;;;;;;;68.25;26.52;;;;;;;-4.80;66.92;103927.68;1681473;85;27421;-63
2022/12/19 06:02:01;;;;;;;111.40;39.42;;;;;;;-4.71;66.83;103933.14;1658625;84;25746;-63
2022/12/19 06:04:29;;;;;;;65.70;25.95;;;;;;;-4.63;66.86;103937.30;1648845;87;25791;-62
2022/12/19 06:06:56;;;;;;;59.18;21.10;;;;;;;-4.57;66.71;103936.56;1649391;87;26520;-64
2022/12/19 06:09:25;;;;;;;47.45;17.20;;;;;;;-4.54;66.72;103936.66;1639914;86;25849;-62
2022/12/19 06:11:51;;;;;;;89.05;25.10;;;;;;;-4.49;66.65;103938.97;1643000;84;29675;-63
2022/12/19 06:14:19;;;;;;;90.72;22.85;;;;;;;-4.45;66.70;103945.19;1665759;84;26431;-63
2022/12/19 06:16:46;;;;;;;53.52;19.17;;;;;;;-4.41;66.47;103943.11;1661392;85;25773;-63
2022/12/19 06:19:14;;;;;;;36.13;14.90;;;;;;;-4.31;66.67;103941.59;1625007;87;25816;-63
2022/12/19 06:21:40;;;;;;;36.30;17.50;;;;;;;-4.28;66.33;103943.87;1675782;84;25942;-63
2022/12/19 06:24:08;;;;;;;36.73;15.48;;;;;;;-4.26;66.23;103953.12;1698920;83;27488;-63
2022/12/19 06:26:34;;;;;;;45.08;16.67;;;;;;;-4.29;65.90;103955.67;1688635;83;25878;-63
2022/12/19 06:29:01;;;;;;;39.90;15.90;;;;;;;-4.32;65.73;103960.84;1678756;84;25845;-62
2022/12/19 06:31:28;;;;;;;38.80;16.70;;;;;;;-4.45;65.30;103951.35;1679298;83;26491;-63
2022/12/19 06:33:55;;;;;;;45.23;18.20;;;;;;;-4.63;65.25;103955.69;1678057;85;25740;-62
2022/12/19 06:36:26;;;;;;;34.67;15.75;;;;;;;-4.69;65.55;103963.82;1679962;83;27504;-62
2022/12/19 06:38:54;;;;;;;34.55;16.02;;;;;;;-4.72;65.67;103968.17;1681673;83;25774;-63
2022/12/19 06:44:11;;;;;;;36.40;16.80;;;;;;;-4.77;65.83;103975.02;1676290;85;25850;-62
2022/12/19 06:46:37;;;;;;;36.50;15.98;;;;;;;-4.73;65.82;103985.18;1676401;85;25863;-63
2022/12/19 06:49:06;;;;;;;36.38;16.02;;;;;;;-4.80;65.86;103976.67;1676640;85;27464;-62
2022/12/19 06:51:33;;;;;;;33.78;16.77;;;;;;;-4.82;65.95;103979.27;1676084;85;25833;-62
2022/12/19 06:54:00;;;;;;;37.40;18.02;;;;;;;-4.88;65.89;103976.05;1675817;85;25516;-62
2022/12/19 06:56:27;;;;;;;39.95;18.25;;;;;;;-4.85;66.17;103980.48;1680666;84;25844;-63
2022/12/19 06:58:54;;;;;;;46.68;17.92;;;;;;;-4.74;66.34;103984.71;1681924;85;25750;-63
2022/12/19 07:01:38;;;;;;;40.03;17.73;;;;;;;-4.79;66.05;103982.40;1687301;83;27452;-63
2022/12/19 07:04:08;;;;;;;37.83;16.00;;;;;;;-4.79;66.13;103989.84;1707606;83;25823;-62
2022/12/19 07:06:35;;;;;;;43.60;19.37;;;;;;;-4.90;65.91;103980.36;1706312;83;26001;-62
2022/12/19 07:09:01;;;;;;;38.23;17.62;;;;;;;-4.93;66.16;103986.83;1708610;83;25851;-64
2022/12/19 07:11:28;;;;;;;39.30;17.92;;;;;;;-4.82;66.51;103992.41;1676165;83;25777;-63
2022/12/19 07:13:55;;;;;;;45.03;19.12;;;;;;;-4.73;66.56;103989.13;1681626;84;27464;-63
2022/12/19 07:16:24;;;;;;;44.15;17.23;;;;;;;-4.63;66.43;103988.97;1686921;83;25791;-62
2022/12/19 07:18:51;;;;;;;42.78;17.40;;;;;;;-4.52;66.62;103983.55;1682115;85;25784;-63
2022/12/19 07:21:18;;;;;;;40.60;17.67;;;;;;;-4.35;66.50;103990.58;1678981;84;26003;-63
2022/12/19 07:23:45;;;;;;;38.25;16.20;;;;;;;-4.22;66.22;103993.09;1696704;84;25737;-63
2022/12/19 07:26:12;;;;;;;47.05;17.05;;;;;;;-4.10;66.20;103996.44;1684436;83;27451;-63
2022/12/19 07:28:39;;;;;;;39.75;16.52;;;;;;;-3.97;66.07;104002.48;1681774;83;27205;-63
2022/12/19 07:31:06;;;;;;;39.38;15.98;;;;;;;-3.87;65.68;104013.23;1680883;83;25812;-63
2022/12/19 07:33:32;;;;;;;35.05;16.70;;;;;;;-3.77;65.62;104015.23;1690181;84;25929;-63
2022/12/19 07:35:59;;;;;;;36.80;15.15;;;;;;;-3.71;65.53;104008.80;1679258;84;25906;-63
2022/12/19 07:38:26;;;;;;;37.63;14.40;;;;;;;-3.67;64.48;103996.16;1682708;83;28205;-63
2022/12/19 07:40:53;;;;;;;36.13;14.43;;;;;;;-3.63;64.72;103990.13;1675330;84;25741;-63
2022/12/19 07:43:20;;;;;;;34.50;14.38;;;;;;;-3.57;64.90;103996.36;1654419;86;25815;-63
2022/12/19 07:45:50;;;;;;;34.20;15.75;;;;;;;-3.47;64.87;103999.27;1658228;83;26552;-63
2022/12/19 07:48:17;;;;;;;34.95;15.78;;;;;;;-3.37;64.79;104008.68;1653712;86;25801;-63
2022/12/19 07:50:45;;;;;;;45.20;16.93;;;;;;;-3.28;64.53;104020.73;1654925;86;28719;-63
2022/12/19 07:53:11;;;;;;;42.13;17.20;;;;;;;-3.18;64.23;104021.80;1654520;86;26187;-63
2022/12/19 07:55:38;;;;;;;32.15;14.85;;;;;;;-3.10;63.58;104014.08;1654329;86;25788;-63
2022/12/19 07:58:05;;;;;;;32.03;15.38;;;;;;;-3.00;63.79;104019.56;1675959;83;25942;-63
2022/12/19 08:00:32;;;;;;;41.65;15.32;;;;;;;-2.86;63.79;104014.98;1683857;84;27304;-64
2022/12/19 08:02:59;;;;;;;35.13;16.20;;;;;;;-2.78;63.46;104012.52;1696145;84;27471;-63
2022/12/19 08:05:26;;;;;;;29.72;14.25;;;;;;;-2.68;63.35;104019.30;1685324;84;25868;-64
2022/12/19 08:07:54;;;;;;;32.40;15.50;;;;;;;-2.58;62.79;104023.44;1680540;85;25826;-63
2022/12/19 08:10:21;;;;;;;33.73;15.98;;;;;;;-2.45;62.82;104025.45;1682692;85;26480;-63
2022/12/19 08:12:49;;;;;;;39.10;17.05;;;;;;;-2.26;62.70;104025.34;1685843;84;25829;-63
2022/12/19 08:15:15;;;;;;;33.05;14.95;;;;;;;-1.83;61.59;104028.25;1688592;85;27452;-63
2022/12/19 08:17:43;;;;;;;41.25;18.45;;;;;;;-1.32;61.12;104023.31;1678557;85;25783;-63
2022/12/19 08:20:12;;;;;;;37.30;15.35;;;;;;;-0.78;60.49;104024.42;1666952;85;25832;-63
2022/12/19 08:22:39;;;;;;;32.05;14.87;;;;;;;-0.45;57.96;104017.72;1680635;85;25797;-63
2022/12/19 08:25:08;;;;;;;36.98;16.15;;;;;;;-0.06;58.51;104015.00;1681566;85;25836;-63
2022/12/19 08:27:34;;;;;;;35.75;17.42;;;;;;;0.41;58.00;104006.95;1684750;83;27597;-63
2022/12/19 08:30:02;;;;;;;35.08;17.87;;;;;;;0.70;55.66;104012.86;1694741;83;25873;-63
2022/12/19 08:32:29;;;;;;;43.02;17.73;;;;;;;0.94;55.53;104016.49;1650482;85;25773;-63
2022/12/19 08:34:56;;;;;;;38.08;18.52;;;;;;;1.30;55.36;104009.55;1692500;83;25777;-63
2022/12/19 08:37:22;;;;;;;33.85;17.52;;;;;;;1.66;54.84;104008.30;1687183;83;25679;-63
2022/12/19 08:39:49;;;;;;;37.63;16.93;;;;;;;2.03;53.39;104005.20;1692818;84;28373;-63
2022/12/19 08:42:16;;;;;;;34.33;17.57;;;;;;;2.29;53.63;104004.70;1682723;83;25782;-63
2022/12/19 08:44:42;;;;;;;33.20;18.07;;;;;;;2.57;53.19;104003.33;1684735;83;25785;-64
2022/12/19 08:47:09;;;;;;;35.52;16.85;;;;;;;2.69;50.46;104005.95;1684378;85;25909;-63
2022/12/19 08:49:36;;;;;;;40.03;16.93;;;;;;;2.86;49.94;104001.02;1684982;84;26034;-64
2022/12/19 08:52:02;;;;;;;36.60;17.57;;;;;;;3.23;50.68;104000.84;1701512;83;27473;-64
2022/12/19 08:54:29;;;;;;;40.73;18.70;;;;;;;3.47;50.12;103997.16;1703374;83;25811;-63
2022/12/19 08:56:56;;;;;;;32.13;16.70;;;;;;;3.74;49.51;103990.73;1684934;85;25770;-63
2022/12/19 08:59:23;;;;;;;39.73;17.20;;;;;;;4.07;49.45;103976.70;1641920;86;25948;-63
2022/12/19 09:01:50;;;;;;;34.10;17.80;;;;;;;4.46;50.01;103982.06;1657979;85;26246;-64
2022/12/19 09:04:18;;;;;;;28.00;16.07;;;;;;;4.85;48.90;103986.50;1662891;85;27747;-63
2022/12/19 09:06:45;;;;;;;27.00;13.85;;;;;;;5.13;45.94;103986.13;1657351;85;26140;-64
2022/12/19 09:09:12;;;;;;;37.70;16.82;;;;;;;5.27;46.90;103984.60;1650590;86;25750;-64
2022/12/19 09:11:38;;;;;;;33.25;16.60;;;;;;;5.37;45.99;103980.00;1647583;86;25810;-64
2022/12/19 09:14:05;;;;;;;27.05;15.23;;;;;;;5.55;46.58;103984.19;1670977;85;25793;-64
2022/12/19 09:16:32;;;;;;;30.00;16.37;;;;;;;5.75;46.30;103979.38;1684011;84;27499;-64
2022/12/19 09:18:58;;;;;;;31.50;17.02;;;;;;;6.01;44.99;103981.22;1665509;84;25777;-64
2022/12/19 09:21:28;;;;;;;30.25;16.00;;;;;;;5.91;43.04;103976.00;1659832;85;25817;-64
2022/12/19 09:23:57;;;;;;;29.95;15.88;;;;;;;6.03;43.87;103978.08;1647838;86;25900;-64
2022/12/19 09:26:26;;;;;;;25.50;16.05;;;;;;;6.31;44.42;103973.09;1651232;86;25790;-64
2022/12/19 09:28:53;;;;;;;27.60;16.52;;;;;;;6.61;44.34;103968.05;1651169;85;27608;-64
2022/12/19 09:31:23;;;;;;;35.10;16.70;;;;;;;6.49;41.66;103975.87;1651183;86;26236;-64
2022/12/19 09:33:50;;;;;;;40.58;14.95;;;;;;;6.75;42.79;103954.39;1651466;84;25805;-65
2022/12/19 09:36:22;;;;;;;33.67;15.95;;;;;;;7.10;42.70;103953.16;1650084;84;25812;-64
2022/12/19 09:38:52;;;;;;;37.53;16.73;;;;;;;7.24;42.72;103955.09;1650490;86;26060;-64
2022/12/19 09:42:15;;;;;;;33.58;17.62;;;;;;;7.50;42.67;103957.59;1658175;85;27638;-64
2022/12/19 09:44:58;;;;;;;27.82;15.13;;;;;;;7.82;41.71;103949.19;1671357;85;25489;-64
2022/12/19 09:47:29;;;;;;;28.15;16.07;;;;;;;8.24;41.29;103942.27;1672902;85;25797;-65
2022/12/19 09:49:58;;;;;;;27.10;15.30;;;;;;;8.64;38.74;103943.41;1652790;85;25808;-64
2022/12/19 09:52:35;;;;;;;22.87;15.23;;;;;;;8.75;39.34;103933.23;1651528;85;25537;-64
2022/12/19 09:55:28;;;;;;;25.97;14.80;;;;;;;8.93;39.98;103925.06;1650923;86;27490;-64
2022/12/19 09:58:11;;;;;;;29.45;15.65;;;;;;;9.13;39.28;103932.52;1682313;83;25949;-64
2022/12/19 10:00:46;;;;;;;46.30;17.87;;;;;;;9.37;39.33;103934.84;1703039;83;25756;-65
2022/12/19 10:03:39;;;;;;;27.93;15.93;;;;;;;9.65;39.23;103923.66;1688055;83;26853;-65
2022/12/19 10:06:22;;;;;;;27.52;16.10;;;;;;;10.14;38.62;103928.63;1670152;84;26014;-65
2022/12/19 10:08:51;;;;;;;28.87;15.63;;;;;;;10.21;37.57;103925.25;1660924;85;27481;-65
2022/12/19 10:11:32;;;;;;;44.88;16.67;;;;;;;10.29;36.90;103932.58;1665075;85;25793;-65
2022/12/19 10:14:47;;;;;;;27.48;15.80;;;;;;;10.14;37.06;103931.80;1669755;85;25800;-65
2022/12/19 10:17:45;;;;;;;32.83;15.93;;;;;;;10.31;36.65;103933.41;1671687;85;25981;-64
2022/12/19 10:20:28;;;;;;;23.18;16.62;;;;;;;10.31;36.32;103930.72;1670322;84;25703;-66
2022/12/19 10:23:16;;;;;;;26.75;15.63;;;;;;;10.42;36.43;103932.16;1670356;84;32487;-65
2022/12/19 10:25:59;;;;;;;25.68;16.32;;;;;;;10.61;35.09;103925.61;1669733;85;25735;-65
2022/12/19 10:28:58;;;;;;;33.53;18.10;;;;;;;10.65;35.68;103920.53;1668361;84;25682;-64
2022/12/19 10:31:42;;;;;;;26.93;16.07;;;;;;;10.62;34.23;103917.94;1675102;85;28094;-65
2022/12/19 10:34:22;;;;;;;34.98;18.02;;;;;;;10.79;33.43;103915.47;1694438;83;25939;-65
2022/12/19 10:36:56;;;;;;;29.55;17.52;;;;;;;10.82;33.18;103909.56;1698889;83;27559;-65
2022/12/19 10:39:44;;;;;;;38.70;17.62;;;;;;;10.60;33.93;103909.04;1658937;85;25738;-64
2022/12/19 10:42:16;;;;;;;31.73;18.65;;;;;;;10.57;34.22;103901.97;1709303;83;25772;-65
2022/12/19 10:44:44;;;;;;;27.90;16.27;;;;;;;10.53;34.79;103894.97;1717840;83;25818;-66
2022/12/19 10:47:16;;;;;;;25.85;17.05;;;;;;;10.93;35.25;103901.94;1680952;83;25716;-65
2022/12/19 10:49:43;;;;;;;27.35;15.00;;;;;;;11.33;34.67;103894.90;1695104;83;27395;-65
2022/12/19 10:52:11;;;;;;;32.85;15.72;;;;;;;11.64;34.36;103887.31;1676627;85;26065;-65
2022/12/19 10:54:42;;;;;;;54.95;23.20;;;;;;;11.84;32.72;103887.33;1674919;83;25499;-65
2022/12/19 10:57:25;;;;;;;29.95;17.62;;;;;;;11.82;32.99;103884.30;1679090;83;25748;-65
2022/12/19 11:00:02;;;;;;;39.83;20.37;;;;;;;11.86;32.93;103888.14;1664522;85;25562;-65
2022/12/19 11:02:54;;;;;;;29.32;16.70;;;;;;;11.77;32.47;103877.77;1676868;85;27518;-65
2022/12/19 11:05:29;;;;;;;32.33;16.55;;;;;;;12.04;31.11;103876.16;1667513;85;25810;-65
2022/12/19 11:08:10;;;;;;;29.45;19.40;;;;;;;11.98;31.85;103875.06;1677071;84;25563;-64
2022/12/19 11:10:47;;;;;;;34.20;17.52;;;;;;;11.75;31.17;103870.20;1674768;83;25731;-65
2022/12/19 11:13:39;;;;;;;28.45;18.32;;;;;;;11.49;31.73;103872.67;1687736;84;26426;-65
2022/12/19 11:16:08;;;;;;;27.77;17.17;;;;;;;11.21;31.53;103877.88;1675415;84;27508;-65
2022/12/19 11:18:43;;;;;;;23.52;16.65;;;;;;;11.01;32.08;103882.30;1676999;85;25777;-65
2022/12/19 11:21:27;;;;;;;42.93;19.15;;;;;;;10.85;32.68;103878.48;1674545;84;25728;-65
2022/12/19 11:24:01;;;;;;;38.65;18.75;;;;;;;10.62;32.52;103879.77;1677275;84;25950;-65
2022/12/19 11:26:36;;;;;;;30.43;17.75;;;;;;;10.41;32.96;103875.23;1676901;83;25833;-65
2022/12/19 11:29:17;;;;;;;24.90;16.48;;;;;;;10.02;32.98;103873.95;1660646;85;28060;-65
2022/12/19 11:31:46;;;;;;;26.17;16.50;;;;;;;9.90;33.46;103882.01;1634106;87;26001;-65
2022/12/19 11:34:20;;;;;;;27.77;16.10;;;;;;;9.84;33.00;103888.48;1648688;85;25881;-65
2022/12/19 11:37:17;;;;;;;29.82;16.30;;;;;;;9.55;33.39;103878.27;1643341;87;25844;-65
2022/12/19 11:39:52;;;;;;;46.75;18.98;;;;;;;9.29;33.73;103878.28;1643180;86;25871;-66
2022/12/19 11:42:30;;;;;;;28.25;16.50;;;;;;;8.77;33.80;103888.44;1640188;87;28423;-64